sensor_id;sensor_type;location;lat;lon;timestamp;P1;durP1;ratioP1;P2;durP2;ratioP2
22967;SDS011;11650;48.106;-1.696;2022-07-03T00:01:50;6.77;;;1.97;;
22967;SDS011;11650;48.106;-1.696;2022-07-03T00:04:15;8.77;;;2.00;;
22967;SDS011;11650;48.106;-1.696;2022-07-03T00:06:43;6.27;;;1.97;;
22967;SDS011;11650;48.106;-1.696;2022-07-03T00:09:08;7.13;;;1.90;;
22967;SDS011;11650;48.106;-1.696;2022-07-03T00:11:34;11.50;;;2.20;;
22967;SDS011;11650;48.106;-1.696;2022-07-03T00:14:00;8.00;;;2.60;;
22967;SDS011;11650;48.106;-1.696;2022-07-03T00:16:25;11.50;;;2.10;;
22967;SDS011;11650;48.106;-1.696;2022-07-03T00:18:51;10.80;;;2.27;;
22967;SDS011;11650;48.106;-1.696;2022-07-03T00:21:19;6.27;;;2.23;;
22967;SDS011;11650;48.106;-1.696;2022-07-03T00:26:16;6.77;;;2.40;;
22967;SDS011;11650;48.106;-1.696;2022-07-03T00:28:44;9.20;;;2.30;;
22967;SDS011;11650;48.106;-1.696;2022-07-03T00:31:10;5.10;;;2.00;;
22967;SDS011;11650;48.106;-1.696;2022-07-03T00:33:37;9.83;;;2.50;;
22967;SDS011;11650;48.106;-1.696;2022-07-03T00:36:03;7.60;;;2.50;;
22967;SDS011;11650;48.106;-1.696;2022-07-03T00:38:29;6.10;;;2.00;;
22967;SDS011;11650;48.106;-1.696;2022-07-03T00:40:55;6.07;;;2.30;;
22967;SDS011;11650;48.106;-1.696;2022-07-03T00:43:21;7.87;;;2.33;;
22967;SDS011;11650;48.106;-1.696;2022-07-03T00:45:50;10.77;;;2.53;;
22967;SDS011;11650;48.106;-1.696;2022-07-03T00:48:16;6.63;;;2.10;;
22967;SDS011;11650;48.106;-1.696;2022-07-03T00:50:45;6.50;;;2.00;;
22967;SDS011;11650;48.106;-1.696;2022-07-03T00:53:19;8.93;;;2.30;;
22967;SDS011;11650;48.106;-1.696;2022-07-03T00:55:53;7.10;;;2.13;;
22967;SDS011;11650;48.106;-1.696;2022-07-03T00:58:21;6.43;;;2.00;;
22967;SDS011;11650;48.106;-1.696;2022-07-03T01:00:47;8.93;;;2.53;;
22967;SDS011;11650;48.106;-1.696;2022-07-03T01:03:17;5.07;;;2.20;;
22967;SDS011;11650;48.106;-1.696;2022-07-03T01:05:49;6.40;;;2.10;;
22967;SDS011;11650;48.106;-1.696;2022-07-03T01:11:21;7.83;;;2.30;;
22967;SDS011;11650;48.106;-1.696;2022-07-03T01:27:27;7.80;;;2.70;;
22967;SDS011;11650;48.106;-1.696;2022-07-03T01:30:05;5.17;;;2.40;;
22967;SDS011;11650;48.106;-1.696;2022-07-03T01:32:42;9.87;;;3.00;;
22967;SDS011;11650;48.106;-1.696;2022-07-03T01:35:09;6.83;;;2.37;;
22967;SDS011;11650;48.106;-1.696;2022-07-03T01:37:40;8.80;;;2.60;;
22967;SDS011;11650;48.106;-1.696;2022-07-03T01:40:06;9.00;;;2.70;;
22967;SDS011;11650;48.106;-1.696;2022-07-03T01:42:34;6.03;;;2.40;;
22967;SDS011;11650;48.106;-1.696;2022-07-03T01:45:03;7.43;;;2.57;;
22967;SDS011;11650;48.106;-1.696;2022-07-03T01:47:33;9.33;;;2.60;;
22967;SDS011;11650;48.106;-1.696;2022-07-03T01:49:59;10.27;;;2.50;;
22967;SDS011;11650;48.106;-1.696;2022-07-03T01:52:27;10.03;;;2.73;;
22967;SDS011;11650;48.106;-1.696;2022-07-03T01:54:56;12.13;;;2.30;;
22967;SDS011;11650;48.106;-1.696;2022-07-03T01:57:31;9.70;;;2.37;;
22967;SDS011;11650;48.106;-1.696;2022-07-03T02:00:06;8.40;;;2.53;;
22967;SDS011;11650;48.106;-1.696;2022-07-03T02:02:33;7.50;;;2.23;;
22967;SDS011;11650;48.106;-1.696;2022-07-03T02:07:39;7.47;;;2.33;;
22967;SDS011;11650;48.106;-1.696;2022-07-03T02:10:13;5.20;;;2.30;;
22967;SDS011;11650;48.106;-1.696;2022-07-03T02:12:47;8.50;;;2.80;;
22967;SDS011;11650;48.106;-1.696;2022-07-03T02:15:24;6.13;;;2.10;;
22967;SDS011;11650;48.106;-1.696;2022-07-03T02:17:55;7.50;;;2.20;;
22967;SDS011;11650;48.106;-1.696;2022-07-03T02:20:22;11.33;;;2.60;;
22967;SDS011;11650;48.106;-1.696;2022-07-03T02:22:59;5.27;;;2.07;;
22967;SDS011;11650;48.106;-1.696;2022-07-03T02:25:33;8.57;;;2.40;;
22967;SDS011;11650;48.106;-1.696;2022-07-03T02:30:34;6.43;;;2.33;;
22967;SDS011;11650;48.106;-1.696;2022-07-03T02:33:01;8.23;;;2.10;;
22967;SDS011;11650;48.106;-1.696;2022-07-03T02:35:28;8.53;;;2.13;;
22967;SDS011;11650;48.106;-1.696;2022-07-03T02:38:03;6.90;;;2.57;;
22967;SDS011;11650;48.106;-1.696;2022-07-03T02:40:34;6.17;;;2.10;;
22967;SDS011;11650;48.106;-1.696;2022-07-03T02:45:49;6.30;;;2.20;;
22967;SDS011;11650;48.106;-1.696;2022-07-03T02:48:24;7.07;;;2.10;;
22967;SDS011;11650;48.106;-1.696;2022-07-03T02:50:59;6.67;;;2.10;;
22967;SDS011;11650;48.106;-1.696;2022-07-03T02:53:41;8.87;;;2.23;;
22967;SDS011;11650;48.106;-1.696;2022-07-03T02:56:21;4.97;;;2.27;;
22967;SDS011;11650;48.106;-1.696;2022-07-03T03:01:54;9.77;;;2.33;;
22967;SDS011;11650;48.106;-1.696;2022-07-03T03:04:30;7.27;;;2.23;;
22967;SDS011;11650;48.106;-1.696;2022-07-03T03:07:12;6.67;;;2.03;;
22967;SDS011;11650;48.106;-1.696;2022-07-03T03:09:41;7.13;;;2.10;;
22967;SDS011;11650;48.106;-1.696;2022-07-03T03:12:11;6.63;;;2.10;;
22967;SDS011;11650;48.106;-1.696;2022-07-03T03:14:38;5.43;;;2.10;;
22967;SDS011;11650;48.106;-1.696;2022-07-03T03:17:06;4.53;;;2.10;;
22967;SDS011;11650;48.106;-1.696;2022-07-03T03:19:36;7.17;;;2.17;;
22967;SDS011;11650;48.106;-1.696;2022-07-03T03:25:04;8.17;;;2.40;;
22967;SDS011;11650;48.106;-1.696;2022-07-03T03:27:30;10.47;;;2.27;;
22967;SDS011;11650;48.106;-1.696;2022-07-03T03:29:56;6.60;;;2.33;;
22967;SDS011;11650;48.106;-1.696;2022-07-03T03:32:22;7.73;;;2.33;;
22967;SDS011;11650;48.106;-1.696;2022-07-03T03:34:49;5.87;;;2.93;;
22967;SDS011;11650;48.106;-1.696;2022-07-03T03:37:15;6.90;;;2.63;;
22967;SDS011;11650;48.106;-1.696;2022-07-03T03:39:41;6.67;;;2.30;;
22967;SDS011;11650;48.106;-1.696;2022-07-03T03:42:07;7.90;;;2.40;;
22967;SDS011;11650;48.106;-1.696;2022-07-03T03:44:33;9.03;;;2.50;;
22967;SDS011;11650;48.106;-1.696;2022-07-03T03:46:59;6.17;;;2.20;;
22967;SDS011;11650;48.106;-1.696;2022-07-03T03:49:24;6.93;;;2.40;;
22967;SDS011;11650;48.106;-1.696;2022-07-03T03:51:51;6.90;;;2.27;;
22967;SDS011;11650;48.106;-1.696;2022-07-03T03:54:17;8.27;;;2.50;;
22967;SDS011;11650;48.106;-1.696;2022-07-03T03:56:43;11.80;;;2.80;;
22967;SDS011;11650;48.106;-1.696;2022-07-03T03:59:09;6.73;;;2.30;;
22967;SDS011;11650;48.106;-1.696;2022-07-03T04:01:34;5.70;;;2.53;;
22967;SDS011;11650;48.106;-1.696;2022-07-03T04:04:00;6.97;;;2.80;;
22967;SDS011;11650;48.106;-1.696;2022-07-03T04:06:26;8.80;;;2.60;;
22967;SDS011;11650;48.106;-1.696;2022-07-03T04:08:51;8.33;;;2.50;;
22967;SDS011;11650;48.106;-1.696;2022-07-03T04:11:18;6.83;;;2.50;;
22967;SDS011;11650;48.106;-1.696;2022-07-03T04:13:43;10.27;;;2.60;;
22967;SDS011;11650;48.106;-1.696;2022-07-03T04:16:10;5.63;;;2.40;;
22967;SDS011;11650;48.106;-1.696;2022-07-03T04:18:36;5.30;;;2.43;;
22967;SDS011;11650;48.106;-1.696;2022-07-03T04:21:02;7.80;;;2.10;;
22967;SDS011;11650;48.106;-1.696;2022-07-03T04:23:28;6.10;;;2.27;;
22967;SDS011;11650;48.106;-1.696;2022-07-03T04:25:54;4.90;;;2.27;;
22967;SDS011;11650;48.106;-1.696;2022-07-03T04:28:20;6.37;;;2.40;;
22967;SDS011;11650;48.106;-1.696;2022-07-03T04:30:46;5.47;;;2.30;;
22967;SDS011;11650;48.106;-1.696;2022-07-03T04:33:12;6.37;;;2.20;;
22967;SDS011;11650;48.106;-1.696;2022-07-03T04:35:38;10.20;;;2.53;;
22967;SDS011;11650;48.106;-1.696;2022-07-03T04:38:04;9.00;;;2.53;;
22967;SDS011;11650;48.106;-1.696;2022-07-03T04:40:29;7.87;;;2.70;;
22967;SDS011;11650;48.106;-1.696;2022-07-03T04:42:55;8.13;;;2.30;;
22967;SDS011;11650;48.106;-1.696;2022-07-03T04:45:20;5.00;;;2.23;;
22967;SDS011;11650;48.106;-1.696;2022-07-03T04:47:46;8.27;;;3.40;;
22967;SDS011;11650;48.106;-1.696;2022-07-03T04:50:12;14.10;;;5.97;;
22967;SDS011;11650;48.106;-1.696;2022-07-03T04:52:37;35.50;;;17.27;;
22967;SDS011;11650;48.106;-1.696;2022-07-03T04:55:03;35.57;;;17.87;;
22967;SDS011;11650;48.106;-1.696;2022-07-03T04:57:29;33.07;;;16.30;;
22967;SDS011;11650;48.106;-1.696;2022-07-03T04:59:55;36.03;;;17.70;;
22967;SDS011;11650;48.106;-1.696;2022-07-03T05:02:21;34.43;;;17.93;;
22967;SDS011;11650;48.106;-1.696;2022-07-03T05:04:46;38.03;;;17.80;;
22967;SDS011;11650;48.106;-1.696;2022-07-03T05:07:12;26.57;;;14.07;;
22967;SDS011;11650;48.106;-1.696;2022-07-03T05:09:38;24.77;;;11.17;;
22967;SDS011;11650;48.106;-1.696;2022-07-03T05:12:03;22.93;;;11.47;;
22967;SDS011;11650;48.106;-1.696;2022-07-03T05:14:29;22.03;;;9.93;;
22967;SDS011;11650;48.106;-1.696;2022-07-03T05:16:55;21.60;;;9.77;;
22967;SDS011;11650;48.106;-1.696;2022-07-03T05:19:21;19.57;;;7.90;;
22967;SDS011;11650;48.106;-1.696;2022-07-03T05:21:46;15.47;;;6.50;;
22967;SDS011;11650;48.106;-1.696;2022-07-03T05:24:12;14.33;;;6.10;;
22967;SDS011;11650;48.106;-1.696;2022-07-03T05:26:37;14.53;;;5.47;;
22967;SDS011;11650;48.106;-1.696;2022-07-03T05:29:03;10.47;;;3.40;;
22967;SDS011;11650;48.106;-1.696;2022-07-03T05:31:29;7.40;;;3.40;;
22967;SDS011;11650;48.106;-1.696;2022-07-03T05:33:54;7.97;;;2.80;;
22967;SDS011;11650;48.106;-1.696;2022-07-03T05:36:20;6.53;;;2.47;;
22967;SDS011;11650;48.106;-1.696;2022-07-03T05:38:45;7.67;;;2.10;;
22967;SDS011;11650;48.106;-1.696;2022-07-03T05:41:29;12.77;;;2.30;;
22967;SDS011;11650;48.106;-1.696;2022-07-03T05:43:55;6.90;;;2.20;;
22967;SDS011;11650;48.106;-1.696;2022-07-03T05:46:22;8.57;;;2.00;;
22967;SDS011;11650;48.106;-1.696;2022-07-03T05:48:48;8.03;;;1.97;;
22967;SDS011;11650;48.106;-1.696;2022-07-03T05:51:13;8.13;;;1.80;;
22967;SDS011;11650;48.106;-1.696;2022-07-03T05:53:39;7.37;;;1.80;;
22967;SDS011;11650;48.106;-1.696;2022-07-03T05:56:05;11.40;;;1.90;;
22967;SDS011;11650;48.106;-1.696;2022-07-03T05:58:30;6.23;;;1.77;;
22967;SDS011;11650;48.106;-1.696;2022-07-03T06:00:56;5.13;;;1.87;;
22967;SDS011;11650;48.106;-1.696;2022-07-03T06:03:21;7.17;;;1.77;;
22967;SDS011;11650;48.106;-1.696;2022-07-03T06:05:47;8.30;;;1.83;;
22967;SDS011;11650;48.106;-1.696;2022-07-03T06:08:13;9.63;;;1.47;;
22967;SDS011;11650;48.106;-1.696;2022-07-03T06:10:38;2.53;;;1.40;;
22967;SDS011;11650;48.106;-1.696;2022-07-03T06:13:04;7.37;;;1.67;;
22967;SDS011;11650;48.106;-1.696;2022-07-03T06:15:30;5.47;;;1.50;;
22967;SDS011;11650;48.106;-1.696;2022-07-03T06:17:56;7.37;;;1.50;;
22967;SDS011;11650;48.106;-1.696;2022-07-03T06:20:22;7.30;;;1.57;;
22967;SDS011;11650;48.106;-1.696;2022-07-03T06:22:48;5.47;;;1.23;;
22967;SDS011;11650;48.106;-1.696;2022-07-03T06:25:14;8.30;;;1.97;;
22967;SDS011;11650;48.106;-1.696;2022-07-03T06:27:39;5.33;;;1.60;;
22967;SDS011;11650;48.106;-1.696;2022-07-03T06:30:05;7.20;;;1.60;;
22967;SDS011;11650;48.106;-1.696;2022-07-03T06:32:31;7.53;;;1.40;;
22967;SDS011;11650;48.106;-1.696;2022-07-03T06:34:57;6.77;;;1.63;;
22967;SDS011;11650;48.106;-1.696;2022-07-03T06:37:23;11.20;;;1.70;;
22967;SDS011;11650;48.106;-1.696;2022-07-03T06:39:48;5.80;;;1.70;;
22967;SDS011;11650;48.106;-1.696;2022-07-03T06:42:14;8.77;;;1.60;;
22967;SDS011;11650;48.106;-1.696;2022-07-03T06:44:39;5.80;;;1.60;;
22967;SDS011;11650;48.106;-1.696;2022-07-03T06:47:06;9.80;;;1.70;;
22967;SDS011;11650;48.106;-1.696;2022-07-03T06:49:32;7.20;;;1.63;;
22967;SDS011;11650;48.106;-1.696;2022-07-03T06:52:00;5.67;;;1.50;;
22967;SDS011;11650;48.106;-1.696;2022-07-03T06:54:25;9.10;;;1.67;;
22967;SDS011;11650;48.106;-1.696;2022-07-03T06:56:52;7.73;;;1.80;;
22967;SDS011;11650;48.106;-1.696;2022-07-03T06:59:18;9.43;;;1.77;;
22967;SDS011;11650;48.106;-1.696;2022-07-03T07:01:44;6.67;;;1.57;;
22967;SDS011;11650;48.106;-1.696;2022-07-03T07:04:09;12.20;;;1.70;;
22967;SDS011;11650;48.106;-1.696;2022-07-03T07:06:36;4.17;;;1.80;;
22967;SDS011;11650;48.106;-1.696;2022-07-03T07:09:02;10.73;;;2.00;;
22967;SDS011;11650;48.106;-1.696;2022-07-03T07:11:28;7.73;;;1.70;;
22967;SDS011;11650;48.106;-1.696;2022-07-03T07:13:53;7.10;;;1.33;;
22967;SDS011;11650;48.106;-1.696;2022-07-03T07:16:19;6.67;;;1.50;;
22967;SDS011;11650;48.106;-1.696;2022-07-03T07:18:44;4.40;;;1.50;;
22967;SDS011;11650;48.106;-1.696;2022-07-03T07:21:11;10.53;;;1.50;;
22967;SDS011;11650;48.106;-1.696;2022-07-03T07:23:36;7.13;;;1.60;;
22967;SDS011;11650;48.106;-1.696;2022-07-03T07:26:03;6.53;;;1.57;;
22967;SDS011;11650;48.106;-1.696;2022-07-03T07:28:29;6.73;;;1.47;;
22967;SDS011;11650;48.106;-1.696;2022-07-03T07:30:55;7.30;;;1.40;;
22967;SDS011;11650;48.106;-1.696;2022-07-03T07:33:22;6.33;;;1.73;;
22967;SDS011;11650;48.106;-1.696;2022-07-03T07:35:49;4.77;;;1.13;;
22967;SDS011;11650;48.106;-1.696;2022-07-03T07:38:15;6.10;;;1.30;;
22967;SDS011;11650;48.106;-1.696;2022-07-03T07:40:41;6.83;;;1.40;;
22967;SDS011;11650;48.106;-1.696;2022-07-03T07:43:07;4.90;;;1.17;;
22967;SDS011;11650;48.106;-1.696;2022-07-03T07:45:32;6.47;;;1.50;;
22967;SDS011;11650;48.106;-1.696;2022-07-03T07:47:58;6.47;;;1.53;;
22967;SDS011;11650;48.106;-1.696;2022-07-03T07:50:24;5.23;;;1.43;;
22967;SDS011;11650;48.106;-1.696;2022-07-03T07:52:50;5.60;;;1.20;;
22967;SDS011;11650;48.106;-1.696;2022-07-03T07:55:16;7.50;;;1.40;;
22967;SDS011;11650;48.106;-1.696;2022-07-03T07:57:42;2.83;;;1.13;;
22967;SDS011;11650;48.106;-1.696;2022-07-03T08:02:35;4.67;;;1.10;;
22967;SDS011;11650;48.106;-1.696;2022-07-03T08:05:19;7.67;;;1.40;;
22967;SDS011;11650;48.106;-1.696;2022-07-03T08:10:35;8.13;;;1.37;;
22967;SDS011;11650;48.106;-1.696;2022-07-03T08:13:04;7.83;;;1.37;;
22967;SDS011;11650;48.106;-1.696;2022-07-03T08:15:30;9.03;;;1.73;;
22967;SDS011;11650;48.106;-1.696;2022-07-03T08:17:55;4.90;;;1.13;;
22967;SDS011;11650;48.106;-1.696;2022-07-03T08:20:21;4.90;;;1.30;;
22967;SDS011;11650;48.106;-1.696;2022-07-03T08:22:47;6.03;;;1.10;;
22967;SDS011;11650;48.106;-1.696;2022-07-03T08:25:12;6.70;;;1.27;;
22967;SDS011;11650;48.106;-1.696;2022-07-03T08:27:38;6.50;;;1.20;;
22967;SDS011;11650;48.106;-1.696;2022-07-03T08:30:04;4.73;;;1.23;;
22967;SDS011;11650;48.106;-1.696;2022-07-03T08:32:30;5.23;;;1.20;;
22967;SDS011;11650;48.106;-1.696;2022-07-03T08:34:55;8.57;;;1.50;;
22967;SDS011;11650;48.106;-1.696;2022-07-03T08:37:21;3.73;;;1.10;;
22967;SDS011;11650;48.106;-1.696;2022-07-03T08:39:47;5.67;;;1.20;;
22967;SDS011;11650;48.106;-1.696;2022-07-03T08:42:12;4.53;;;1.00;;
22967;SDS011;11650;48.106;-1.696;2022-07-03T08:44:40;5.30;;;1.20;;
22967;SDS011;11650;48.106;-1.696;2022-07-03T08:47:08;4.03;;;1.00;;
22967;SDS011;11650;48.106;-1.696;2022-07-03T08:49:37;5.20;;;1.10;;
22967;SDS011;11650;48.106;-1.696;2022-07-03T08:52:03;7.00;;;1.30;;
22967;SDS011;11650;48.106;-1.696;2022-07-03T08:54:32;3.57;;;0.90;;
22967;SDS011;11650;48.106;-1.696;2022-07-03T08:56:59;3.67;;;1.07;;
22967;SDS011;11650;48.106;-1.696;2022-07-03T08:59:26;6.87;;;1.20;;
22967;SDS011;11650;48.106;-1.696;2022-07-03T09:01:57;4.10;;;0.93;;
22967;SDS011;11650;48.106;-1.696;2022-07-03T09:04:23;8.53;;;1.00;;
22967;SDS011;11650;48.106;-1.696;2022-07-03T09:06:49;4.53;;;1.03;;
22967;SDS011;11650;48.106;-1.696;2022-07-03T09:09:15;2.80;;;1.10;;
22967;SDS011;11650;48.106;-1.696;2022-07-03T09:11:41;5.57;;;1.03;;
22967;SDS011;11650;48.106;-1.696;2022-07-03T09:14:07;5.07;;;0.97;;
22967;SDS011;11650;48.106;-1.696;2022-07-03T09:16:35;4.27;;;1.10;;
22967;SDS011;11650;48.106;-1.696;2022-07-03T09:19:01;3.23;;;0.83;;
22967;SDS011;11650;48.106;-1.696;2022-07-03T09:24:09;3.07;;;0.83;;
22967;SDS011;11650;48.106;-1.696;2022-07-03T09:26:35;6.27;;;1.20;;
22967;SDS011;11650;48.106;-1.696;2022-07-03T09:29:14;3.13;;;1.00;;
22967;SDS011;11650;48.106;-1.696;2022-07-03T09:31:39;2.90;;;0.80;;
22967;SDS011;11650;48.106;-1.696;2022-07-03T09:34:06;2.47;;;0.87;;
22967;SDS011;11650;48.106;-1.696;2022-07-03T09:36:42;2.53;;;0.73;;
22967;SDS011;11650;48.106;-1.696;2022-07-03T09:41:59;1.83;;;0.80;;
22967;SDS011;11650;48.106;-1.696;2022-07-03T09:44:43;5.03;;;0.83;;
22967;SDS011;11650;48.106;-1.696;2022-07-03T09:55:39;3.20;;;0.80;;
22967;SDS011;11650;48.106;-1.696;2022-07-03T10:05:22;2.80;;;0.83;;
22967;SDS011;11650;48.106;-1.696;2022-07-03T10:07:54;3.70;;;0.90;;
22967;SDS011;11650;48.106;-1.696;2022-07-03T10:10:22;3.27;;;0.97;;
22967;SDS011;11650;48.106;-1.696;2022-07-03T10:12:50;5.00;;;0.87;;
22967;SDS011;11650;48.106;-1.696;2022-07-03T10:15:17;3.20;;;0.70;;
22967;SDS011;11650;48.106;-1.696;2022-07-03T10:17:43;1.50;;;0.67;;
22967;SDS011;11650;48.106;-1.696;2022-07-03T10:20:14;1.10;;;0.57;;
22967;SDS011;11650;48.106;-1.696;2022-07-03T10:22:45;1.90;;;0.63;;
22967;SDS011;11650;48.106;-1.696;2022-07-03T10:25:13;2.03;;;0.80;;
22967;SDS011;11650;48.106;-1.696;2022-07-03T10:27:39;2.27;;;0.70;;
22967;SDS011;11650;48.106;-1.696;2022-07-03T10:30:05;4.43;;;1.03;;
22967;SDS011;11650;48.106;-1.696;2022-07-03T10:32:34;2.13;;;0.97;;
22967;SDS011;11650;48.106;-1.696;2022-07-03T10:35:02;3.47;;;0.70;;
22967;SDS011;11650;48.106;-1.696;2022-07-03T10:37:29;1.73;;;0.60;;
22967;SDS011;11650;48.106;-1.696;2022-07-03T10:40:19;2.70;;;0.70;;
22967;SDS011;11650;48.106;-1.696;2022-07-03T10:43:21;3.63;;;0.70;;
22967;SDS011;11650;48.106;-1.696;2022-07-03T10:46:15;2.33;;;0.67;;
22967;SDS011;11650;48.106;-1.696;2022-07-03T10:48:52;2.00;;;0.63;;
22967;SDS011;11650;48.106;-1.696;2022-07-03T10:51:22;1.80;;;0.70;;
22967;SDS011;11650;48.106;-1.696;2022-07-03T10:53:48;2.17;;;0.70;;
22967;SDS011;11650;48.106;-1.696;2022-07-03T10:56:14;2.60;;;0.90;;
22967;SDS011;11650;48.106;-1.696;2022-07-03T10:59:00;1.67;;;0.60;;
22967;SDS011;11650;48.106;-1.696;2022-07-03T11:01:29;2.37;;;0.80;;
22967;SDS011;11650;48.106;-1.696;2022-07-03T11:09:05;3.53;;;0.80;;
22967;SDS011;11650;48.106;-1.696;2022-07-03T11:14:22;1.60;;;0.63;;
22967;SDS011;11650;48.106;-1.696;2022-07-03T11:19:46;4.07;;;0.70;;
22967;SDS011;11650;48.106;-1.696;2022-07-03T11:22:41;1.47;;;0.70;;
22967;SDS011;11650;48.106;-1.696;2022-07-03T11:25:25;2.03;;;0.70;;
22967;SDS011;11650;48.106;-1.696;2022-07-03T11:27:50;5.00;;;0.70;;
22967;SDS011;11650;48.106;-1.696;2022-07-03T11:30:18;3.20;;;0.77;;
22967;SDS011;11650;48.106;-1.696;2022-07-03T11:32:45;2.33;;;0.83;;
22967;SDS011;11650;48.106;-1.696;2022-07-03T11:38:10;3.37;;;0.70;;
22967;SDS011;11650;48.106;-1.696;2022-07-03T11:40:36;2.77;;;0.90;;
22967;SDS011;11650;48.106;-1.696;2022-07-03T11:43:06;2.87;;;0.70;;
22967;SDS011;11650;48.106;-1.696;2022-07-03T11:45:32;3.10;;;0.90;;
22967;SDS011;11650;48.106;-1.696;2022-07-03T11:47:58;3.90;;;0.70;;
22967;SDS011;11650;48.106;-1.696;2022-07-03T11:50:46;3.43;;;0.80;;
22967;SDS011;11650;48.106;-1.696;2022-07-03T11:55:58;1.57;;;0.77;;
22967;SDS011;11650;48.106;-1.696;2022-07-03T12:01:06;3.23;;;1.00;;
22967;SDS011;11650;48.106;-1.696;2022-07-03T12:03:33;2.57;;;0.80;;
22967;SDS011;11650;48.106;-1.696;2022-07-03T12:05:58;2.10;;;0.83;;
22967;SDS011;11650;48.106;-1.696;2022-07-03T12:08:28;2.60;;;0.90;;
22967;SDS011;11650;48.106;-1.696;2022-07-03T12:10:56;1.47;;;0.67;;
22967;SDS011;11650;48.106;-1.696;2022-07-03T12:13:27;3.10;;;0.70;;
22967;SDS011;11650;48.106;-1.696;2022-07-03T12:16:00;4.00;;;0.80;;
22967;SDS011;11650;48.106;-1.696;2022-07-03T12:18:26;3.67;;;0.93;;
22967;SDS011;11650;48.106;-1.696;2022-07-03T12:20:52;5.93;;;1.80;;
22967;SDS011;11650;48.106;-1.696;2022-07-03T12:23:18;2.83;;;0.80;;
22967;SDS011;11650;48.106;-1.696;2022-07-03T12:25:43;3.03;;;0.70;;
22967;SDS011;11650;48.106;-1.696;2022-07-03T12:28:09;1.13;;;0.77;;
22967;SDS011;11650;48.106;-1.696;2022-07-03T12:30:36;1.60;;;0.70;;
22967;SDS011;11650;48.106;-1.696;2022-07-03T12:33:02;2.30;;;0.80;;
22967;SDS011;11650;48.106;-1.696;2022-07-03T12:35:29;1.47;;;0.50;;
22967;SDS011;11650;48.106;-1.696;2022-07-03T12:37:55;1.73;;;0.70;;
22967;SDS011;11650;48.106;-1.696;2022-07-03T12:40:21;3.30;;;0.77;;
22967;SDS011;11650;48.106;-1.696;2022-07-03T12:45:19;3.10;;;0.80;;
22967;SDS011;11650;48.106;-1.696;2022-07-03T12:47:56;2.63;;;0.83;;
22967;SDS011;11650;48.106;-1.696;2022-07-03T12:50:26;1.27;;;0.60;;
22967;SDS011;11650;48.106;-1.696;2022-07-03T12:53:08;2.40;;;0.77;;
22967;SDS011;11650;48.106;-1.696;2022-07-03T12:55:34;2.40;;;0.77;;
22967;SDS011;11650;48.106;-1.696;2022-07-03T12:58:21;2.90;;;0.90;;
22967;SDS011;11650;48.106;-1.696;2022-07-03T13:01:17;2.53;;;0.70;;
22967;SDS011;11650;48.106;-1.696;2022-07-03T13:03:49;5.53;;;0.90;;
22967;SDS011;11650;48.106;-1.696;2022-07-03T13:06:15;3.57;;;0.80;;
22967;SDS011;11650;48.106;-1.696;2022-07-03T13:11:27;2.43;;;0.97;;
22967;SDS011;11650;48.106;-1.696;2022-07-03T13:14:05;2.57;;;0.80;;
22967;SDS011;11650;48.106;-1.696;2022-07-03T13:16:51;1.70;;;0.80;;
22967;SDS011;11650;48.106;-1.696;2022-07-03T13:19:19;2.40;;;0.80;;
22967;SDS011;11650;48.106;-1.696;2022-07-03T13:21:50;1.70;;;0.67;;
22967;SDS011;11650;48.106;-1.696;2022-07-03T13:24:17;3.10;;;0.80;;
22967;SDS011;11650;48.106;-1.696;2022-07-03T13:26:43;2.97;;;0.80;;
22967;SDS011;11650;48.106;-1.696;2022-07-03T13:29:09;1.73;;;0.90;;
22967;SDS011;11650;48.106;-1.696;2022-07-03T13:31:35;3.33;;;0.83;;
22967;SDS011;11650;48.106;-1.696;2022-07-03T13:34:01;3.90;;;0.80;;
22967;SDS011;11650;48.106;-1.696;2022-07-03T13:36:27;1.70;;;0.90;;
22967;SDS011;11650;48.106;-1.696;2022-07-03T13:38:54;3.60;;;0.80;;
22967;SDS011;11650;48.106;-1.696;2022-07-03T13:41:20;2.67;;;0.70;;
22967;SDS011;11650;48.106;-1.696;2022-07-03T13:43:47;4.03;;;0.90;;
22967;SDS011;11650;48.106;-1.696;2022-07-03T13:46:14;3.60;;;0.80;;
22967;SDS011;11650;48.106;-1.696;2022-07-03T13:48:40;3.43;;;0.90;;
22967;SDS011;11650;48.106;-1.696;2022-07-03T13:51:06;3.03;;;1.00;;
22967;SDS011;11650;48.106;-1.696;2022-07-03T13:53:32;3.03;;;0.80;;
22967;SDS011;11650;48.106;-1.696;2022-07-03T13:55:58;2.73;;;1.00;;
22967;SDS011;11650;48.106;-1.696;2022-07-03T13:58:24;4.17;;;0.90;;
22967;SDS011;11650;48.106;-1.696;2022-07-03T14:00:51;2.90;;;1.00;;
22967;SDS011;11650;48.106;-1.696;2022-07-03T14:03:16;2.00;;;0.77;;
22967;SDS011;11650;48.106;-1.696;2022-07-03T14:05:42;3.33;;;0.83;;
22967;SDS011;11650;48.106;-1.696;2022-07-03T14:08:08;1.80;;;0.80;;
22967;SDS011;11650;48.106;-1.696;2022-07-03T14:10:34;4.10;;;0.80;;
22967;SDS011;11650;48.106;-1.696;2022-07-03T14:12:59;4.83;;;0.90;;
22967;SDS011;11650;48.106;-1.696;2022-07-03T14:15:25;2.77;;;0.97;;
22967;SDS011;11650;48.106;-1.696;2022-07-03T14:17:50;2.17;;;0.80;;
22967;SDS011;11650;48.106;-1.696;2022-07-03T14:20:16;4.00;;;0.97;;
22967;SDS011;11650;48.106;-1.696;2022-07-03T14:22:42;5.30;;;1.30;;
22967;SDS011;11650;48.106;-1.696;2022-07-03T14:25:09;3.03;;;1.10;;
22967;SDS011;11650;48.106;-1.696;2022-07-03T14:27:35;7.93;;;1.20;;
22967;SDS011;11650;48.106;-1.696;2022-07-03T14:30:19;3.53;;;1.10;;
22967;SDS011;11650;48.106;-1.696;2022-07-03T14:33:04;5.63;;;1.17;;
22967;SDS011;11650;48.106;-1.696;2022-07-03T14:35:29;3.17;;;1.00;;
22967;SDS011;11650;48.106;-1.696;2022-07-03T14:37:55;6.60;;;1.30;;
22967;SDS011;11650;48.106;-1.696;2022-07-03T14:40:21;5.13;;;1.20;;
22967;SDS011;11650;48.106;-1.696;2022-07-03T14:42:46;2.60;;;1.10;;
22967;SDS011;11650;48.106;-1.696;2022-07-03T14:45:12;5.63;;;1.10;;
22967;SDS011;11650;48.106;-1.696;2022-07-03T14:47:38;8.17;;;1.20;;
22967;SDS011;11650;48.106;-1.696;2022-07-03T14:50:03;4.70;;;1.03;;
22967;SDS011;11650;48.106;-1.696;2022-07-03T14:52:29;5.13;;;1.07;;
22967;SDS011;11650;48.106;-1.696;2022-07-03T14:54:55;4.77;;;1.23;;
22967;SDS011;11650;48.106;-1.696;2022-07-03T14:57:26;7.67;;;1.40;;
22967;SDS011;11650;48.106;-1.696;2022-07-03T15:05:09;5.63;;;1.23;;
22967;SDS011;11650;48.106;-1.696;2022-07-03T15:07:39;4.07;;;1.38;;
22967;SDS011;11650;48.106;-1.696;2022-07-03T15:10:08;2.45;;;0.90;;
22967;SDS011;11650;48.106;-1.696;2022-07-03T15:12:45;3.72;;;1.10;;
22967;SDS011;11650;48.106;-1.696;2022-07-03T15:15:15;4.15;;;1.38;;
22967;SDS011;11650;48.106;-1.696;2022-07-03T15:17:42;6.53;;;1.33;;
22967;SDS011;11650;48.106;-1.696;2022-07-03T15:20:08;4.80;;;1.13;;
22967;SDS011;11650;48.106;-1.696;2022-07-03T15:22:41;2.17;;;1.17;;
22967;SDS011;11650;48.106;-1.696;2022-07-03T15:25:11;4.57;;;1.10;;
22967;SDS011;11650;48.106;-1.696;2022-07-03T15:27:40;4.10;;;1.30;;
22967;SDS011;11650;48.106;-1.696;2022-07-03T15:30:10;3.27;;;0.93;;
22967;SDS011;11650;48.106;-1.696;2022-07-03T15:32:36;4.17;;;1.00;;
22967;SDS011;11650;48.106;-1.696;2022-07-03T15:35:03;7.33;;;1.30;;
22967;SDS011;11650;48.106;-1.696;2022-07-03T15:42:55;3.73;;;1.10;;
22967;SDS011;11650;48.106;-1.696;2022-07-03T15:51:15;3.60;;;1.10;;
22967;SDS011;11650;48.106;-1.696;2022-07-03T15:53:44;4.55;;;1.25;;
22967;SDS011;11650;48.106;-1.696;2022-07-03T15:56:14;6.18;;;1.23;;
22967;SDS011;11650;48.106;-1.696;2022-07-03T15:58:47;6.75;;;1.30;;
22967;SDS011;11650;48.106;-1.696;2022-07-03T16:01:17;3.95;;;1.20;;
22967;SDS011;11650;48.106;-1.696;2022-07-03T16:06:41;5.57;;;1.88;;
22967;SDS011;11650;48.106;-1.696;2022-07-03T16:09:07;7.35;;;1.63;;
22967;SDS011;11650;48.106;-1.696;2022-07-03T16:11:34;4.85;;;1.10;;
22967;SDS011;11650;48.106;-1.696;2022-07-03T16:14:02;5.90;;;1.02;;
22967;SDS011;11650;48.106;-1.696;2022-07-03T16:16:30;8.55;;;1.20;;
22967;SDS011;11650;48.106;-1.696;2022-07-03T16:18:57;3.90;;;1.17;;
22967;SDS011;11650;48.106;-1.696;2022-07-03T16:21:26;3.10;;;1.00;;
22967;SDS011;11650;48.106;-1.696;2022-07-03T16:23:53;2.53;;;1.20;;